sensor_id;sensor_type;location;lat;lon;timestamp;pressure;altitude;pressure_sealevel;temperature;humidity
48352;BME280;34163;49.314;6.752;2023-05-24T07:58:45;100185.53;;;5.65;100.00
48352;BME280;34163;49.314;6.752;2023-05-24T08:01:11;100189.94;;;5.61;100.00
48352;BME280;34163;49.314;6.752;2023-05-24T08:03:37;100180.31;;;5.63;100.00
48352;BME280;34163;49.314;6.752;2023-05-24T08:06:03;100178.63;;;5.58;100.00
48352;BME280;34163;49.314;6.752;2023-05-24T08:08:28;100188.28;;;5.57;100.00
48352;BME280;34163;49.314;6.752;2023-05-24T08:10:54;100186.44;;;5.62;100.00
48352;BME280;34163;49.314;6.752;2023-05-24T08:13:19;100190.94;;;5.56;100.00
48352;BME280;34163;49.314;6.752;2023-05-24T08:15:47;100186.41;;;5.66;100.00
48352;BME280;34163;49.314;6.752;2023-05-24T08:18:14;100179.38;;;5.64;100.00
48352;BME280;34163;49.314;6.752;2023-05-24T08:21:00;100183.03;;;5.57;100.00
48352;BME280;34163;49.314;6.752;2023-05-24T08:23:44;100190.06;;;5.55;100.00
48352;BME280;34163;49.314;6.752;2023-05-24T08:26:31;100178.72;;;5.52;100.00
48352;BME280;34163;49.314;6.752;2023-05-24T08:28:56;100177.78;;;5.57;100.00
48352;BME280;34163;49.314;6.752;2023-05-24T08:31:29;100179.56;;;5.55;100.00
48352;BME280;34163;49.314;6.752;2023-05-24T08:34:02;100180.25;;;5.67;100.00
48352;BME280;34163;49.314;6.752;2023-05-24T08:36:40;100186.63;;;5.50;100.00
48352;BME280;34163;49.314;6.752;2023-05-24T08:39:14;100183.03;;;5.57;100.00
48352;BME280;34163;49.314;6.752;2023-05-24T08:41:42;100173.50;;;5.49;100.00
48352;BME280;34163;49.314;6.752;2023-05-24T08:44:29;100184.97;;;5.46;100.00
48352;BME280;34163;49.314;6.752;2023-05-24T08:46:53;100184.81;;;5.55;100.00
48352;BME280;34163;49.314;6.752;2023-05-24T08:49:30;100181.31;;;5.53;100.00
48352;BME280;34163;49.314;6.752;2023-05-24T08:52:01;100177.06;;;5.48;100.00
48352;BME280;34163;49.314;6.752;2023-05-24T08:54:35;100176.13;;;5.50;100.00
48352;BME280;34163;49.314;6.752;2023-05-24T08:57:03;100169.25;;;5.41;100.00
48352;BME280;34163;49.314;6.752;2023-05-24T09:02:17;100173.44;;;5.53;100.00
48352;BME280;34163;49.314;6.752;2023-05-24T09:04:43;100177.72;;;5.60;100.00
48352;BME280;34163;49.314;6.752;2023-05-24T09:07:23;100176.75;;;5.64;100.00
48352;BME280;34163;49.314;6.752;2023-05-24T09:09:54;100182.06;;;5.61;100.00
48352;BME280;34163;49.314;6.752;2023-05-24T09:12:29;100189.09;;;5.61;100.00
48352;BME280;34163;49.314;6.752;2023-05-24T09:14:57;100182.03;;;5.64;100.00
48352;BME280;34163;49.314;6.752;2023-05-24T09:17:22;100179.47;;;5.58;100.00
48352;BME280;34163;49.314;6.752;2023-05-24T09:19:56;100175.06;;;5.62;100.00
48352;BME280;34163;49.314;6.752;2023-05-24T09:22:26;100162.88;;;5.56;100.00
48352;BME280;34163;49.314;6.752;2023-05-24T09:25:05;100175.84;;;5.69;100.00
48352;BME280;34163;49.314;6.752;2023-05-24T09:27:33;100165.31;;;5.69;100.00
48352;BME280;34163;49.314;6.752;2023-05-24T09:30:19;100166.44;;;5.54;100.00
48352;BME280;34163;49.314;6.752;2023-05-24T09:32:59;100168.84;;;5.66;100.00
48352;BME280;34163;49.314;6.752;2023-05-24T09:35:28;100165.38;;;6.15;100.00
48352;BME280;34163;49.314;6.752;2023-05-24T09:37:56;100157.06;;;6.39;100.00
48352;BME280;34163;49.314;6.752;2023-05-24T09:40:21;100155.69;;;6.19;100.00
48352;BME280;34163;49.314;6.752;2023-05-24T09:42:55;100149.75;;;8.03;100.00
48352;BME280;34163;49.314;6.752;2023-05-24T09:48:30;100142.03;;;9.99;100.00
48352;BME280;34163;49.314;6.752;2023-05-24T09:53:31;100138.09;;;9.33;100.00
48352;BME280;34163;49.314;6.752;2023-05-24T09:55:58;100139.13;;;8.37;100.00
48352;BME280;34163;49.314;6.752;2023-05-24T09:58:23;100143.44;;;8.09;100.00
48352;BME280;34163;49.314;6.752;2023-05-24T10:00:53;100141.03;;;8.01;100.00
48352;BME280;34163;49.314;6.752;2023-05-24T10:03:27;100144.31;;;7.75;100.00
48352;BME280;34163;49.314;6.752;2023-05-24T10:05:52;100139.25;;;7.67;100.00
48352;BME280;34163;49.314;6.752;2023-05-24T10:08:18;100140.41;;;7.57;100.00
48352;BME280;34163;49.314;6.752;2023-05-24T10:10:45;100133.22;;;7.62;100.00
48352;BME280;34163;49.314;6.752;2023-05-24T10:13:10;100132.75;;;7.46;100.00
48352;BME280;34163;49.314;6.752;2023-05-24T10:15:36;100124.88;;;7.44;100.00
48352;BME280;34163;49.314;6.752;2023-05-24T10:18:02;100125.16;;;7.32;100.00
48352;BME280;34163;49.314;6.752;2023-05-24T10:20:32;100120.06;;;7.26;100.00
48352;BME280;34163;49.314;6.752;2023-05-24T10:23:02;100119.25;;;7.22;100.00
48352;BME280;34163;49.314;6.752;2023-05-24T10:25:28;100116.78;;;7.15;100.00
48352;BME280;34163;49.314;6.752;2023-05-24T10:27:57;100116.28;;;8.05;100.00
48352;BME280;34163;49.314;6.752;2023-05-24T10:30:33;100117.00;;;7.43;100.00
48352;BME280;34163;49.314;6.752;2023-05-24T10:33:00;100118.34;;;7.23;100.00
48352;BME280;34163;49.314;6.752;2023-05-24T10:35:25;100110.34;;;7.28;100.00
48352;BME280;34163;49.314;6.752;2023-05-24T10:37:52;100104.25;;;7.26;100.00
48352;BME280;34163;49.314;6.752;2023-05-24T10:40:19;100108.31;;;7.39;100.00
48352;BME280;34163;49.314;6.752;2023-05-24T10:42:45;100099.03;;;7.23;100.00
48352;BME280;34163;49.314;6.752;2023-05-24T10:47:59;100095.53;;;7.22;100.00
48352;BME280;34163;49.314;6.752;2023-05-24T10:50:24;100091.88;;;7.28;100.00
48352;BME280;34163;49.314;6.752;2023-05-24T10:52:52;100091.09;;;7.24;100.00
48352;BME280;34163;49.314;6.752;2023-05-24T10:55:34;100097.34;;;7.20;100.00
48352;BME280;34163;49.314;6.752;2023-05-24T10:58:00;100093.78;;;7.23;100.00
48352;BME280;34163;49.314;6.752;2023-05-24T11:00:31;100097.44;;;7.16;100.00
48352;BME280;34163;49.314;6.752;2023-05-24T11:03:00;100085.16;;;7.15;100.00
48352;BME280;34163;49.314;6.752;2023-05-24T11:05:47;100082.34;;;7.22;100.00
48352;BME280;34163;49.314;6.752;2023-05-24T11:08:21;100082.63;;;7.12;100.00
48352;BME280;34163;49.314;6.752;2023-05-24T11:10:48;100081.56;;;7.19;100.00
48352;BME280;34163;49.314;6.752;2023-05-24T11:13:13;100074.72;;;7.12;100.00
48352;BME280;34163;49.314;6.752;2023-05-24T11:15:39;100079.03;;;7.14;100.00
48352;BME280;34163;49.314;6.752;2023-05-24T11:18:15;100072.22;;;7.05;100.00
48352;BME280;34163;49.314;6.752;2023-05-24T11:20:41;100072.75;;;7.20;100.00
48352;BME280;34163;49.314;6.752;2023-05-24T11:23:08;100076.19;;;7.23;100.00
48352;BME280;34163;49.314;6.752;2023-05-24T11:25:33;100081.41;;;7.25;100.00
48352;BME280;34163;49.314;6.752;2023-05-24T11:28:00;100065.75;;;7.19;100.00
48352;BME280;34163;49.314;6.752;2023-05-24T11:30:26;100077.22;;;7.16;100.00
48352;BME280;34163;49.314;6.752;2023-05-24T11:32:51;100063.28;;;7.11;100.00
48352;BME280;34163;49.314;6.752;2023-05-24T11:35:20;100074.53;;;7.18;100.00
48352;BME280;34163;49.314;6.752;2023-05-24T11:37:47;100069.34;;;7.15;100.00
48352;BME280;34163;49.314;6.752;2023-05-24T11:40:12;100069.63;;;7.04;100.00
48352;BME280;34163;49.314;6.752;2023-05-24T11:42:38;100059.75;;;7.12;100.00
48352;BME280;34163;49.314;6.752;2023-05-24T11:45:04;100072.00;;;7.13;100.00
48352;BME280;34163;49.314;6.752;2023-05-24T11:47:34;100059.94;;;7.04;100.00
48352;BME280;34163;49.314;6.752;2023-05-24T11:50:00;100061.59;;;7.10;100.00
48352;BME280;34163;49.314;6.752;2023-05-24T11:52:25;100063.69;;;6.96;100.00
48352;BME280;34163;49.314;6.752;2023-05-24T11:54:53;100066.91;;;7.07;100.00
48352;BME280;34163;49.314;6.752;2023-05-24T11:57:25;100052.97;;;7.02;100.00
48352;BME280;34163;49.314;6.752;2023-05-24T11:59:51;100053.53;;;7.15;100.00
48352;BME280;34163;49.314;6.752;2023-05-24T12:02:22;100054.69;;;7.04;100.00
48352;BME280;34163;49.314;6.752;2023-05-24T12:04:48;100054.59;;;7.07;100.00
48352;BME280;34163;49.314;6.752;2023-05-24T12:07:13;100052.41;;;7.25;100.00
48352;BME280;34163;49.314;6.752;2023-05-24T12:09:56;100062.06;;;7.26;100.00
48352;BME280;34163;49.314;6.752;2023-05-24T12:12:24;100061.38;;;7.18;100.00
48352;BME280;34163;49.314;6.752;2023-05-24T12:14:49;100052.03;;;7.04;100.00
48352;BME280;34163;49.314;6.752;2023-05-24T12:17:19;100050.22;;;7.06;100.00
48352;BME280;34163;49.314;6.752;2023-05-24T12:19:44;100048.97;;;7.23;100.00
48352;BME280;34163;49.314;6.752;2023-05-24T12:22:12;100042.31;;;7.06;100.00
48352;BME280;34163;49.314;6.752;2023-05-24T12:24:40;100046.84;;;7.01;100.00
48352;BME280;34163;49.314;6.752;2023-05-24T12:27:06;100044.16;;;7.03;100.00
48352;BME280;34163;49.314;6.752;2023-05-24T12:29:38;100038.84;;;7.06;100.00
48352;BME280;34163;49.314;6.752;2023-05-24T12:32:05;100045.84;;;7.07;100.00
48352;BME280;34163;49.314;6.752;2023-05-24T12:34:35;100041.28;;;7.14;100.00
48352;BME280;34163;49.314;6.752;2023-05-24T12:37:01;100036.78;;;7.17;100.00
48352;BME280;34163;49.314;6.752;2023-05-24T12:39:27;100029.00;;;7.13;100.00
48352;BME280;34163;49.314;6.752;2023-05-24T12:41:56;100039.50;;;7.14;100.00
48352;BME280;34163;49.314;6.752;2023-05-24T12:44:26;100041.06;;;7.23;100.00
48352;BME280;34163;49.314;6.752;2023-05-24T12:46:52;100040.34;;;7.15;100.00
48352;BME280;34163;49.314;6.752;2023-05-24T12:49:18;100032.69;;;7.05;100.00
48352;BME280;34163;49.314;6.752;2023-05-24T12:51:43;100026.66;;;7.00;100.00
48352;BME280;34163;49.314;6.752;2023-05-24T12:54:08;100031.88;;;7.02;100.00
48352;BME280;34163;49.314;6.752;2023-05-24T12:56:33;100038.75;;;7.09;100.00
48352;BME280;34163;49.314;6.752;2023-05-24T12:58:59;100030.78;;;7.12;100.00
48352;BME280;34163;49.314;6.752;2023-05-24T13:01:25;100029.91;;;7.12;100.00
48352;BME280;34163;49.314;6.752;2023-05-24T13:03:50;100021.38;;;7.00;100.00
48352;BME280;34163;49.314;6.752;2023-05-24T13:06:16;100027.50;;;7.02;100.00
48352;BME280;34163;49.314;6.752;2023-05-24T13:08:41;100028.78;;;7.22;100.00
48352;BME280;34163;49.314;6.752;2023-05-24T13:11:06;100030.97;;;7.04;100.00
48352;BME280;34163;49.314;6.752;2023-05-24T13:13:32;100025.72;;;7.03;100.00
48352;BME280;34163;49.314;6.752;2023-05-24T13:15:57;100020.63;;;6.95;100.00
48352;BME280;34163;49.314;6.752;2023-05-24T13:18:25;100006.59;;;6.95;100.00
48352;BME280;34163;49.314;6.752;2023-05-24T13:20:50;100017.78;;;7.04;100.00
48352;BME280;34163;49.314;6.752;2023-05-24T13:23:18;100011.22;;;7.21;100.00
48352;BME280;34163;49.314;6.752;2023-05-24T13:25:44;100007.91;;;7.13;100.00
48352;BME280;34163;49.314;6.752;2023-05-24T13:28:09;100013.53;;;6.99;100.00
48352;BME280;34163;49.314;6.752;2023-05-24T13:30:35;99997.66;;;7.00;100.00
48352;BME280;34163;49.314;6.752;2023-05-24T13:33:00;99996.03;;;6.96;100.00
48352;BME280;34163;49.314;6.752;2023-05-24T13:35:26;99993.16;;;7.07;100.00
48352;BME280;34163;49.314;6.752;2023-05-24T13:37:51;99992.06;;;7.14;100.00
48352;BME280;34163;49.314;6.752;2023-05-24T13:40:18;99994.97;;;7.03;100.00
48352;BME280;34163;49.314;6.752;2023-05-24T13:42:43;99991.44;;;7.04;100.00
48352;BME280;34163;49.314;6.752;2023-05-24T13:45:11;99988.47;;;7.18;100.00
48352;BME280;34163;49.314;6.752;2023-05-24T13:47:36;99987.69;;;7.13;100.00
48352;BME280;34163;49.314;6.752;2023-05-24T13:50:02;99991.38;;;7.07;100.00
48352;BME280;34163;49.314;6.752;2023-05-24T13:52:28;99996.00;;;6.98;100.00
48352;BME280;34163;49.314;6.752;2023-05-24T13:54:54;99982.94;;;6.93;100.00
48352;BME280;34163;49.314;6.752;2023-05-24T13:57:20;99991.63;;;6.97;100.00
48352;BME280;34163;49.314;6.752;2023-05-24T13:59:45;99990.78;;;6.96;100.00
48352;BME280;34163;49.314;6.752;2023-05-24T14:02:10;99991.69;;;6.94;100.00
48352;BME280;34163;49.314;6.752;2023-05-24T14:04:35;99991.44;;;7.04;100.00
48352;BME280;34163;49.314;6.752;2023-05-24T14:07:01;99995.97;;;6.99;100.00
48352;BME280;34163;49.314;6.752;2023-05-24T14:09:26;99999.56;;;6.95;100.00
48352;BME280;34163;49.314;6.752;2023-05-24T14:11:51;99995.13;;;6.97;100.00
48352;BME280;34163;49.314;6.752;2023-05-24T14:14:17;100007.28;;;7.03;100.00
48352;BME280;34163;49.314;6.752;2023-05-24T14:16:42;100002.56;;;7.16;100.00
48352;BME280;34163;49.314;6.752;2023-05-24T14:19:07;100007.91;;;7.13;100.00
48352;BME280;34163;49.314;6.752;2023-05-24T14:21:36;100000.75;;;7.18;100.00
48352;BME280;34163;49.314;6.752;2023-05-24T14:24:01;100002.72;;;7.09;100.00
48352;BME280;34163;49.314;6.752;2023-05-24T14:26:26;99996.66;;;7.06;100.00
48352;BME280;34163;49.314;6.752;2023-05-24T14:28:51;99985.31;;;8.61;100.00
48352;BME280;34163;49.314;6.752;2023-05-24T14:31:17;99998.34;;;7.43;100.00
48352;BME280;34163;49.314;6.752;2023-05-24T14:33:42;99998.09;;;7.19;100.00
48352;BME280;34163;49.314;6.752;2023-05-24T14:36:07;100007.91;;;7.13;100.00
48352;BME280;34163;49.314;6.752;2023-05-24T14:38:33;100008.72;;;7.15;100.00
48352;BME280;34163;49.314;6.752;2023-05-24T14:40:58;100009.00;;;7.05;100.00
48352;BME280;34163;49.314;6.752;2023-05-24T14:43:25;100010.41;;;7.19;100.00
48352;BME280;34163;49.314;6.752;2023-05-24T14:45:50;100011.47;;;7.12;100.00
48352;BME280;34163;49.314;6.752;2023-05-24T14:48:15;100017.63;;;7.11;100.00
48352;BME280;34163;49.314;6.752;2023-05-24T14:50:41;100017.41;;;7.20;100.00
48352;BME280;34163;49.314;6.752;2023-05-24T14:53:07;100020.88;;;7.22;100.00
48352;BME280;34163;49.314;6.752;2023-05-24T14:55:35;100019.50;;;7.07;100.00
48352;BME280;34163;49.314;6.752;2023-05-24T14:58:01;100024.84;;;7.04;100.00
48352;BME280;34163;49.314;6.752;2023-05-24T15:00:26;100028.16;;;7.12;100.00
48352;BME280;34163;49.314;6.752;2023-05-24T15:05:43;100028.41;;;7.01;100.00
48352;BME280;34163;49.314;6.752;2023-05-24T15:08:09;100031.78;;;7.06;100.00
48352;BME280;34163;49.314;6.752;2023-05-24T15:10:35;100043.00;;;7.15;100.00
48352;BME280;34163;49.314;6.752;2023-05-24T15:13:02;100046.41;;;7.20;100.00
48352;BME280;34163;49.314;6.752;2023-05-24T15:15:30;100050.56;;;7.28;100.00
48352;BME280;34163;49.314;6.752;2023-05-24T15:17:55;100050.41;;;7.35;100.00
48352;BME280;34163;49.314;6.752;2023-05-24T15:20:23;100049.75;;;7.26;100.00
48352;BME280;34163;49.314;6.752;2023-05-24T15:22:48;100058.81;;;7.15;100.00
48352;BME280;34163;49.314;6.752;2023-05-24T15:25:14;100052.97;;;7.02;100.00
48352;BME280;34163;49.314;6.752;2023-05-24T15:28:00;100047.88;;;6.96;100.00
48352;BME280;34163;49.314;6.752;2023-05-24T15:30:27;100059.91;;;7.06;100.00
48352;BME280;34163;49.314;6.752;2023-05-24T15:32:52;100049.50;;;7.00;100.00
48352;BME280;34163;49.314;6.752;2023-05-24T15:35:17;100060.59;;;7.14;100.00
48352;BME280;34163;49.314;6.752;2023-05-24T15:37:42;100060.81;;;7.05;100.00
48352;BME280;34163;49.314;6.752;2023-05-24T15:40:08;100059.75;;;7.12;100.00
48352;BME280;34163;49.314;6.752;2023-05-24T15:42:34;100070.44;;;7.06;100.00
48352;BME280;34163;49.314;6.752;2023-05-24T15:45:00;100062.44;;;7.11;100.00
48352;BME280;34163;49.314;6.752;2023-05-24T15:47:25;100062.53;;;7.06;100.00
48352;BME280;34163;49.314;6.752;2023-05-24T15:50:01;100061.19;;;6.89;100.00
48352;BME280;34163;49.314;6.752;2023-05-24T15:52:27;100057.09;;;7.14;100.00
48352;BME280;34163;49.314;6.752;2023-05-24T15:54:53;100062.72;;;6.98;100.00
48352;BME280;34163;49.314;6.752;2023-05-24T15:57:19;100062.72;;;6.98;100.00
48352;BME280;34163;49.314;6.752;2023-05-24T15:59:45;100065.38;;;6.97;100.00
48352;BME280;34163;49.314;6.752;2023-05-24T16:02:10;100067.09;;;6.99;100.00
48352;BME280;34163;49.314;6.752;2023-05-24T16:04:35;100064.66;;;6.90;100.00
48352;BME280;34163;49.314;6.752;2023-05-24T16:07:01;100063.00;;;6.86;100.00
48352;BME280;34163;49.314;6.752;2023-05-24T16:09:26;100064.56;;;6.95;100.00
48352;BME280;34163;49.314;6.752;2023-05-24T16:11:51;100076.06;;;6.90;100.00
48352;BME280;34163;49.314;6.752;2023-05-24T16:14:16;100068.72;;;7.05;100.00
48352;BME280;34163;49.314;6.752;2023-05-24T16:16:44;100075.78;;;7.03;100.00
48352;BME280;34163;49.314;6.752;2023-05-24T16:19:10;100066.47;;;6.89;100.00
48352;BME280;34163;49.314;6.752;2023-05-24T16:21:43;100061.34;;;6.82;100.00
48352;BME280;34163;49.314;6.752;2023-05-24T16:24:11;100057.66;;;6.89;100.00
48352;BME280;34163;49.314;6.752;2023-05-24T16:26:36;100066.56;;;6.85;100.00
48352;BME280;34163;49.314;6.752;2023-05-24T16:29:01;100059.47;;;6.87;100.00
48352;BME280;34163;49.314;6.752;2023-05-24T16:31:28;100059.69;;;6.78;100.00
48352;BME280;34163;49.314;6.752;2023-05-24T16:33:53;100061.34;;;6.82;100.00
48352;BME280;34163;49.314;6.752;2023-05-24T16:36:18;100054.56;;;6.71;100.00
48352;BME280;34163;49.314;6.752;2023-05-24T16:38:45;100048.44;;;6.71;100.00
48352;BME280;34163;49.314;6.752;2023-05-24T16:41:12;100041.34;;;6.73;100.00
48352;BME280;34163;49.314;6.752;2023-05-24T16:43:38;100046.69;;;6.70;100.00
48352;BME280;34163;49.314;6.752;2023-05-24T16:46:03;100037.13;;;6.66;100.00
48352;BME280;34163;49.314;6.752;2023-05-24T16:48:28;100033.69;;;6.64;100.00
48352;BME280;34163;49.314;6.752;2023-05-24T16:50:55;100045.72;;;6.74;100.00
48352;BME280;34163;49.314;6.752;2023-05-24T16:53:23;100044.53;;;6.87;100.00
48352;BME280;34163;49.314;6.752;2023-05-24T16:55:51;100043.66;;;6.87;100.00
48352;BME280;34163;49.314;6.752;2023-05-24T16:58:20;100036.56;;;6.90;100.00
48352;BME280;34163;49.314;6.752;2023-05-24T17:00:46;100049.63;;;6.95;100.00
48352;BME280;34163;49.314;6.752;2023-05-24T17:03:19;100049.66;;;6.94;100.00
48352;BME280;34163;49.314;6.752;2023-05-24T17:05:51;100057.53;;;6.95;100.00
48352;BME280;34163;49.314;6.752;2023-05-24T17:08:17;100046.69;;;7.07;100.00
48352;BME280;34163;49.314;6.752;2023-05-24T17:10:42;100058.44;;;6.94;100.00
48352;BME280;34163;49.314;6.752;2023-05-24T17:13:08;100061.16;;;6.91;100.00
48352;BME280;34163;49.314;6.752;2023-05-24T17:15:33;100063.06;;;6.83;100.00
48352;BME280;34163;49.314;6.752;2023-05-24T17:17:58;100062.25;;;6.81;100.00
48352;BME280;34163;49.314;6.752;2023-05-24T17:20:24;100071.06;;;6.80;100.00
48352;BME280;34163;49.314;6.752;2023-05-24T17:22:49;100062.38;;;6.75;100.00
48352;BME280;34163;49.314;6.752;2023-05-24T17:25:15;100076.56;;;6.69;100.00
48352;BME280;34163;49.314;6.752;2023-05-24T17:27:40;100063.31;;;6.73;100.00
48352;BME280;34163;49.314;6.752;2023-05-24T17:30:06;100067.75;;;6.70;100.00
48352;BME280;34163;49.314;6.752;2023-05-24T17:32:31;100078.31;;;6.68;100.00
48352;BME280;34163;49.314;6.752;2023-05-24T17:35:04;100084.44;;;6.70;100.00
48352;BME280;34163;49.314;6.752;2023-05-24T17:37:29;100087.97;;;6.69;100.00
48352;BME280;34163;49.314;6.752;2023-05-24T17:39:55;100088.00;;;6.68;100.00
48352;BME280;34163;49.314;6.752;2023-05-24T17:42:20;100094.97;;;6.70;100.00
48352;BME280;34163;49.314;6.752;2023-05-24T17:44:48;100099.25;;;6.75;100.00
48352;BME280;34163;49.314;6.752;2023-05-24T17:47:13;100101.94;;;6.71;100.00
48352;BME280;34163;49.314;6.752;2023-05-24T17:49:41;100105.44;;;6.73;100.00
48352;BME280;34163;49.314;6.752;2023-05-24T17:52:09;100110.97;;;6.61;100.00
48352;BME280;34163;49.314;6.752;2023-05-24T17:54:40;100102.94;;;6.67;100.00
48352;BME280;34163;49.314;6.752;2023-05-24T17:57:06;100112.50;;;6.71;100.00
48352;BME280;34163;49.314;6.752;2023-05-24T17:59:33;100107.50;;;6.59;100.00
48352;BME280;34163;49.314;6.752;2023-05-24T18:01:59;100117.00;;;6.66;100.00
48352;BME280;34163;49.314;6.752;2023-05-24T18:04:30;100113.38;;;6.72;100.00
48352;BME280;34163;49.314;6.752;2023-05-24T18:06:58;100115.31;;;6.64;100.00
48352;BME280;34163;49.314;6.752;2023-05-24T18:09:26;100116.28;;;6.58;100.00
48352;BME280;34163;49.314;6.752;2023-05-24T18:11:51;100117.03;;;6.65;100.00
48352;BME280;34163;49.314;6.752;2023-05-24T18:14:16;100112.56;;;6.68;100.00
48352;BME280;34163;49.314;6.752;2023-05-24T18:16:42;100114.59;;;6.55;100.00
48352;BME280;34163;49.314;6.752;2023-05-24T18:19:08;100118.97;;;6.57;100.00
48352;BME280;34163;49.314;6.752;2023-05-24T18:21:33;100118.16;;;6.53;100.00
48352;BME280;34163;49.314;6.752;2023-05-24T18:23:58;100116.34;;;6.55;100.00
48352;BME280;34163;49.314;6.752;2023-05-24T18:26:23;100117.16;;;6.59;100.00
48352;BME280;34163;49.314;6.752;2023-05-24T18:28:52;100115.50;;;6.54;100.00
48352;BME280;34163;49.314;6.752;2023-05-24T18:31:17;100117.25;;;6.54;100.00
48352;BME280;34163;49.314;6.752;2023-05-24T18:33:44;100120.63;;;6.62;100.00
48352;BME280;34163;49.314;6.752;2023-05-24T18:36:09;100119.69;;;6.63;100.00
48352;BME280;34163;49.314;6.752;2023-05-24T18:38:36;100114.28;;;6.69;100.00
48352;BME280;34163;49.314;6.752;2023-05-24T18:41:03;100120.66;;;6.61;100.00
48352;BME280;34163;49.314;6.752;2023-05-24T18:43:33;100116.41;;;6.52;100.00
48352;BME280;34163;49.314;6.752;2023-05-24T18:45:58;100120.16;;;6.42;100.00
48352;BME280;34163;49.314;6.752;2023-05-24T18:48:23;100126.19;;;6.47;100.00
48352;BME280;34163;49.314;6.752;2023-05-24T18:50:49;100112.03;;;6.51;100.00
48352;BME280;34163;49.314;6.752;2023-05-24T18:53:14;100119.09;;;6.50;100.00
48352;BME280;34163;49.314;6.752;2023-05-24T18:55:40;100114.84;;;6.45;100.00
48352;BME280;34163;49.314;6.752;2023-05-24T18:58:05;100109.47;;;6.49;100.00
48352;BME280;34163;49.314;6.752;2023-05-24T19:00:30;100114.69;;;6.51;100.00
48352;BME280;34163;49.314;6.752;2023-05-24T19:02:56;100113.88;;;6.47;100.00
48352;BME280;34163;49.314;6.752;2023-05-24T19:05:21;100116.41;;;6.52;100.00
48352;BME280;34163;49.314;6.752;2023-05-24T19:07:46;100119.22;;;6.44;100.00
48352;BME280;34163;49.314;6.752;2023-05-24T19:10:12;100127.09;;;6.44;100.00
48352;BME280;34163;49.314;6.752;2023-05-24T19:12:38;100129.63;;;6.50;100.00
48352;BME280;34163;49.314;6.752;2023-05-24T19:15:03;100123.56;;;6.47;100.00
48352;BME280;34163;49.314;6.752;2023-05-24T19:17:28;100129.53;;;6.55;100.00
48352;BME280;34163;49.314;6.752;2023-05-24T19:19:54;100134.22;;;6.41;100.00
48352;BME280;34163;49.314;6.752;2023-05-24T19:22:19;100134.03;;;6.50;100.00
48352;BME280;34163;49.314;6.752;2023-05-24T19:24:44;100142.88;;;6.46;100.00
48352;BME280;34163;49.314;6.752;2023-05-24T19:27:10;100140.25;;;6.46;100.00
48352;BME280;34163;49.314;6.752;2023-05-24T19:29:35;100143.50;;;6.57;100.00
48352;BME280;34163;49.314;6.752;2023-05-24T19:32:00;100139.41;;;6.44;100.00
48352;BME280;34163;49.314;6.752;2023-05-24T19:34:26;100148.16;;;6.44;100.00
48352;BME280;34163;49.314;6.752;2023-05-24T19:36:52;100151.75;;;6.42;100.00
48352;BME280;34163;49.314;6.752;2023-05-24T19:39:18;100153.50;;;6.40;100.00
48352;BME280;34163;49.314;6.752;2023-05-24T19:41:43;100150.00;;;6.41;100.00
48352;BME280;34163;49.314;6.752;2023-05-24T19:44:08;100157.03;;;6.40;100.00
48352;BME280;34163;49.314;6.752;2023-05-24T19:46:33;100153.47;;;6.43;100.00
48352;BME280;34163;49.314;6.752;2023-05-24T19:48:59;100160.66;;;6.34;100.00
48352;BME280;34163;49.314;6.752;2023-05-24T19:51:24;100154.41;;;6.40;100.00
48352;BME280;34163;49.314;6.752;2023-05-24T19:53:49;100166.94;;;6.27;100.00
48352;BME280;34163;49.314;6.752;2023-05-24T19:56:18;100157.97;;;6.36;100.00
48352;BME280;34163;49.314;6.752;2023-05-24T19:58:44;100159.75;;;6.35;100.00
48352;BME280;34163;49.314;6.752;2023-05-24T20:01:10;100161.44;;;6.38;100.00
48352;BME280;34163;49.314;6.752;2023-05-24T20:03:35;100167.66;;;6.35;100.00
48352;BME280;34163;49.314;6.752;2023-05-24T20:06:00;100170.34;;;6.32;100.00
48352;BME280;34163;49.314;6.752;2023-05-24T20:08:26;100168.63;;;6.30;100.00
48352;BME280;34163;49.314;6.752;2023-05-24T20:10:51;100173.91;;;6.28;100.00
48352;BME280;34163;49.314;6.752;2023-05-24T20:13:16;100169.47;;;6.33;100.00
48352;BME280;34163;49.314;6.752;2023-05-24T20:15:42;100168.44;;;6.39;100.00
48352;BME280;34163;49.314;6.752;2023-05-24T20:18:07;100167.66;;;6.35;100.00
48352;BME280;34163;49.314;6.752;2023-05-24T20:20:33;100169.56;;;6.27;100.00
48352;BME280;34163;49.314;6.752;2023-05-24T20:22:58;100169.50;;;6.30;100.00
48352;BME280;34163;49.314;6.752;2023-05-24T20:25:23;100171.13;;;6.38;100.00
48352;BME280;34163;49.314;6.752;2023-05-24T20:27:49;100161.44;;;6.38;100.00
48352;BME280;34163;49.314;6.752;2023-05-24T20:30:14;100174.72;;;6.33;100.00
48352;BME280;34163;49.314;6.752;2023-05-24T20:32:41;100171.13;;;6.38;100.00
48352;BME280;34163;49.314;6.752;2023-05-24T20:35:06;100165.88;;;6.36;100.00
48352;BME280;34163;49.314;6.752;2023-05-24T20:37:31;100165.13;;;6.29;100.00
48352;BME280;34163;49.314;6.752;2023-05-24T20:39:57;100172.13;;;6.32;100.00
48352;BME280;34163;49.314;6.752;2023-05-24T20:42:22;100171.28;;;6.28;100.00
48352;BME280;34163;49.314;6.752;2023-05-24T20:44:48;100169.31;;;6.40;100.00
48352;BME280;34163;49.314;6.752;2023-05-24T20:47:13;100178.16;;;6.37;100.00
48352;BME280;34163;49.314;6.752;2023-05-24T20:49:40;100175.69;;;6.28;100.00
48352;BME280;34163;49.314;6.752;2023-05-24T20:52:06;100171.16;;;6.34;100.00
48352;BME280;34163;49.314;6.752;2023-05-24T20:54:31;100177.28;;;6.35;100.00
48352;BME280;34163;49.314;6.752;2023-05-24T20:56:56;100176.53;;;6.30;100.00
48352;BME280;34163;49.314;6.752;2023-05-24T20:59:23;100174.84;;;6.27;100.00
48352;BME280;34163;49.314;6.752;2023-05-24T21:01:48;100173.06;;;6.28;100.00